EGHI/SOU METAR and TAF weather

Enter ICAO airport designator
Station Type Date Time Source
EGHI METAR 2021/05/13 18:20 UTC NOAA

EGHI 131820Z 05006KT 010V100 9999 FEW014 SCT023 11/08 Q1005


Station Type Date Time Source
EGHI Decoded METAR 2021/05/13 18:20 UTC NOAA

Southampton / Weather Centre, United Kingdom (EGHI) 50-54N 001-24W 0M
May 13, 2021 - 02:20 PM EDT / 2021.05.13 1820 UTC
Wind: from the NE (050 degrees) at 7 MPH (6 KT) (direction variable):0
Visibility: greater than 7 mile(s):0
Sky conditions: partly cloudy
Temperature: 51 F (11 C)
Dew Point: 46 F (8 C)
Relative Humidity: 81%
Pressure (altimeter): 29.68 in. Hg (1005 hPa)
ob: EGHI 131820Z 05006KT 010V100 9999 FEW014 SCT023 11/08 Q1005
cycle: 18

Station Type Date Time Source
EGHI TAF 2020/02/21 21:54 UTC NOAA

TAF EGHI 210345Z 2021/2123 CNL

Example: see airport list